createdAt,value
2023-05-31T00:03:30.877Z,8.80
2023-05-31T00:06:03.637Z,9.60
2023-05-31T00:08:43.536Z,8.40
2023-05-31T00:11:15.947Z,9.20
2023-05-31T00:13:54.302Z,8.80
2023-05-31T00:17:01.427Z,8.40
2023-05-31T00:20:12.401Z,8.90
2023-05-31T00:23:18.197Z,9.50
2023-05-31T00:25:50.431Z,8.80
2023-05-31T00:28:22.668Z,9.60
2023-05-31T00:35:27.335Z,8.50
2023-05-31T00:38:28.914Z,8.30
2023-05-31T00:41:01.616Z,8.80
2023-05-31T00:43:34.263Z,8.60
2023-05-31T00:46:06.631Z,9.30
2023-05-31T00:48:45.311Z,9.90
2023-05-31T00:51:20.136Z,9.20
2023-05-31T00:54:00.097Z,9.20
2023-05-31T00:56:32.842Z,8.30
2023-05-31T00:59:14.640Z,8.90
2023-05-31T01:01:47.296Z,9.70
2023-05-31T01:04:27.405Z,9.30
2023-05-31T01:07:02.131Z,10.30
2023-05-31T01:26:13.901Z,9.10
2023-05-31T01:36:47.860Z,8.90
2023-05-31T01:39:53.845Z,10.00
2023-05-31T01:46:59.107Z,10.00
2023-05-31T01:49:31.618Z,8.90
2023-05-31T01:52:04.767Z,10.50
2023-05-31T01:54:37.167Z,9.50
2023-05-31T01:57:17.533Z,10.20
2023-05-31T02:00:13.914Z,9.80
2023-05-31T02:03:32.564Z,10.50
2023-05-31T02:06:14.332Z,9.70
2023-05-31T02:09:32.062Z,9.60
2023-05-31T02:12:12.569Z,9.50
2023-05-31T02:19:58.511Z,8.70
2023-05-31T02:22:37.386Z,9.40
2023-05-31T02:28:59.380Z,9.70
2023-05-31T02:31:31.671Z,9.50
2023-05-31T02:34:12.403Z,10.10
2023-05-31T02:36:44.692Z,8.90
2023-05-31T02:39:24.483Z,8.80
2023-05-31T02:47:05.520Z,9.00
2023-05-31T02:49:44.789Z,8.50
2023-05-31T02:52:17.416Z,9.30
2023-05-31T02:55:35.871Z,8.50
2023-05-31T02:58:48.599Z,9.50
2023-05-31T03:02:28.702Z,10.90
2023-05-31T03:05:48.652Z,11.00
2023-05-31T03:08:21.322Z,10.30
2023-05-31T03:11:00.834Z,9.10
2023-05-31T03:13:33.558Z,9.20
2023-05-31T03:20:40.150Z,8.30
2023-05-31T03:23:19.588Z,9.00
2023-05-31T03:25:52.008Z,9.90
2023-05-31T03:32:56.697Z,8.90
2023-05-31T03:35:29.519Z,9.20
2023-05-31T03:38:08.676Z,9.80
2023-05-31T03:40:41.073Z,10.00
2023-05-31T03:43:33.487Z,9.70
2023-05-31T03:46:07.317Z,9.90
2023-05-31T03:48:39.889Z,10.00
2023-05-31T03:51:19.498Z,10.20
2023-05-31T03:53:52.072Z,11.20
2023-05-31T03:56:33.174Z,10.60
2023-05-31T04:04:23.848Z,9.80
2023-05-31T04:11:28.979Z,10.30
2023-05-31T04:23:50.410Z,10.20
2023-05-31T04:27:48.814Z,10.20
2023-05-31T04:30:27.462Z,10.60
2023-05-31T04:37:32.510Z,10.30
2023-05-31T04:40:14.782Z,10.30
2023-05-31T04:42:47.101Z,9.80
2023-05-31T04:45:58.994Z,10.20
2023-05-31T04:52:48.739Z,10.70
2023-05-31T04:55:28.544Z,10.60
2023-05-31T04:58:22.632Z,9.60
2023-05-31T05:00:55.568Z,10.40
2023-05-31T05:03:52.392Z,10.70
2023-05-31T05:06:25.636Z,11.20
2023-05-31T05:12:45.939Z,8.70
2023-05-31T05:15:18.542Z,7.50
2023-05-31T05:17:58.509Z,7.60
2023-05-31T05:20:35.229Z,7.80
2023-05-31T05:34:36.282Z,6.40
2023-05-31T05:38:34.597Z,5.90
2023-05-31T05:41:15.546Z,5.90
2023-05-31T05:44:08.596Z,5.80
2023-05-31T05:47:15.361Z,5.20
2023-05-31T05:49:49.854Z,6.50
2023-05-31T05:52:22.762Z,6.30
2023-05-31T05:54:55.016Z,5.90
2023-05-31T05:57:28.150Z,6.50
2023-05-31T06:00:13.370Z,5.10
2023-05-31T06:03:21.249Z,5.40
2023-05-31T06:05:54.539Z,5.10
2023-05-31T06:09:28.177Z,10.30
2023-05-31T06:12:01.768Z,5.90
2023-05-31T06:14:44.676Z,5.40
2023-05-31T06:17:16.888Z,4.40
2023-05-31T06:19:49.129Z,4.70
2023-05-31T06:23:16.122Z,4.70
2023-05-31T06:34:51.740Z,3.90
2023-05-31T06:37:32.495Z,3.50
2023-05-31T06:40:06.204Z,4.40
2023-05-31T06:42:38.987Z,3.90
2023-05-31T06:46:25.462Z,3.40
2023-05-31T06:53:42.712Z,3.20
2023-05-31T06:56:53.747Z,3.80
2023-05-31T06:59:26.036Z,3.20
2023-05-31T07:02:30.935Z,3.30
2023-05-31T07:05:03.529Z,2.90
2023-05-31T07:07:36.060Z,2.80
2023-05-31T07:10:10.171Z,2.50
2023-05-31T07:12:42.907Z,3.00
2023-05-31T07:19:20.308Z,2.60
2023-05-31T07:27:22.359Z,4.20
2023-05-31T07:30:14.350Z,2.70
2023-05-31T07:33:28.295Z,2.30
2023-05-31T07:36:03.311Z,2.50
2023-05-31T07:38:36.071Z,5.60
2023-05-31T07:48:16.008Z,1.90
2023-05-31T07:50:54.681Z,2.30
2023-05-31T07:57:59.759Z,2.30
2023-05-31T08:00:38.603Z,2.10
2023-05-31T08:03:11.167Z,2.50
2023-05-31T08:10:15.667Z,2.40
2023-05-31T08:12:55.419Z,3.80
2023-05-31T08:15:29.100Z,3.10
2023-05-31T08:26:40.052Z,1.70
2023-05-31T08:29:18.597Z,2.10
2023-05-31T08:36:02.391Z,1.60
2023-05-31T08:46:07.915Z,1.70
2023-05-31T08:58:00.304Z,1.40
2023-05-31T09:00:39.415Z,1.90
2023-05-31T09:03:12.678Z,1.90
2023-05-31T09:06:09.361Z,1.70
2023-05-31T09:08:41.610Z,3.20
2023-05-31T09:11:14.193Z,1.80
2023-05-31T09:13:54.108Z,1.40
2023-05-31T09:16:27.132Z,2.00
2023-05-31T09:19:07.141Z,1.60
2023-05-31T09:26:03.155Z,1.90
2023-05-31T09:33:09.364Z,1.60
2023-05-31T09:44:34.455Z,2.00
2023-05-31T09:56:46.598Z,2.90
2023-05-31T09:59:41.998Z,2.20
2023-05-31T10:03:07.091Z,2.20
2023-05-31T10:10:13.330Z,2.50
2023-05-31T10:21:30.060Z,2.10
2023-05-31T10:24:28.036Z,1.90
2023-05-31T10:36:27.977Z,2.30
2023-05-31T10:43:42.882Z,2.20
2023-05-31T10:49:41.132Z,1.80
2023-05-31T10:57:31.884Z,2.00
2023-05-31T11:07:39.896Z,2.10
2023-05-31T11:23:08.799Z,2.90
2023-05-31T11:30:16.732Z,2.30
2023-05-31T11:37:18.269Z,2.30
2023-05-31T11:39:50.865Z,1.70
2023-05-31T11:47:14.600Z,2.30
2023-05-31T11:50:20.327Z,1.90
2023-05-31T11:52:56.024Z,2.00
2023-05-31T11:56:18.710Z,2.00
2023-05-31T11:58:59.822Z,2.20
2023-05-31T12:10:12.845Z,3.50
2023-05-31T12:12:47.985Z,1.80
2023-05-31T12:19:53.724Z,2.40
2023-05-31T12:22:27.649Z,2.90
2023-05-31T12:25:01.830Z,1.80
2023-05-31T12:28:02.180Z,1.70
2023-05-31T12:34:17.128Z,1.90
2023-05-31T12:45:33.105Z,2.60
2023-05-31T12:49:03.687Z,2.10
2023-05-31T13:14:12.841Z,2.50
2023-05-31T13:21:15.768Z,2.40
2023-05-31T13:23:47.812Z,2.40
2023-05-31T13:30:14.083Z,2.30
2023-05-31T13:32:47.520Z,2.40
2023-05-31T13:35:26.242Z,3.00
2023-05-31T13:37:58.428Z,2.60
2023-05-31T13:40:38.303Z,2.40
2023-05-31T13:43:11.298Z,2.40
2023-05-31T13:45:43.577Z,2.30
2023-05-31T13:48:15.856Z,1.90
2023-05-31T13:50:48.217Z,1.90
2023-05-31T13:57:37.632Z,2.80
2023-05-31T14:03:43.591Z,2.10
2023-05-31T14:10:14.906Z,3.20
2023-05-31T14:12:47.736Z,1.90
2023-05-31T14:15:20.065Z,2.30
2023-05-31T14:17:52.378Z,2.30
2023-05-31T14:21:15.964Z,6.60
2023-05-31T14:23:48.494Z,4.80
2023-05-31T14:26:21.444Z,3.00
2023-05-31T14:29:00.311Z,2.60
2023-05-31T14:31:32.736Z,3.60
2023-05-31T14:38:39.969Z,2.00
2023-05-31T14:48:39.785Z,2.40
2023-05-31T14:51:18.132Z,2.90
2023-05-31T14:53:51.926Z,3.00
2023-05-31T14:56:45.499Z,2.80
2023-05-31T15:03:51.556Z,3.00
2023-05-31T15:15:19.512Z,2.30
2023-05-31T15:17:51.712Z,4.10
2023-05-31T15:20:24.218Z,2.50
2023-05-31T15:22:56.223Z,2.20
2023-05-31T15:25:28.231Z,2.60
2023-05-31T15:32:35.202Z,2.70
2023-05-31T15:39:03.276Z,3.00
2023-05-31T15:42:16.084Z,2.10
2023-05-31T15:44:54.218Z,3.00
2023-05-31T15:47:26.412Z,2.20
2023-05-31T15:50:05.630Z,2.90
2023-05-31T15:52:37.700Z,2.80
2023-05-31T15:55:11.136Z,2.90
2023-05-31T15:57:43.178Z,3.10
2023-05-31T16:00:17.847Z,2.60
2023-05-31T16:02:53.031Z,2.60
2023-05-31T16:05:26.267Z,2.50
2023-05-31T16:08:01.066Z,2.60
2023-05-31T16:10:34.557Z,2.30
2023-05-31T16:13:09.057Z,2.60
2023-05-31T16:15:43.148Z,2.10
2023-05-31T16:18:15.585Z,2.30
2023-05-31T16:20:48.300Z,2.00
2023-05-31T16:23:20.558Z,2.00
2023-05-31T16:25:54.581Z,3.10
2023-05-31T16:28:27.015Z,2.50
2023-05-31T16:31:13.466Z,2.90
2023-05-31T16:33:46.755Z,2.10
2023-05-31T16:36:19.275Z,2.90
2023-05-31T16:39:02.286Z,2.60
2023-05-31T16:41:34.510Z,2.70
2023-05-31T16:44:46.307Z,2.50
2023-05-31T16:47:20.621Z,2.80
2023-05-31T16:49:52.920Z,2.80
2023-05-31T16:52:25.680Z,3.50
2023-05-31T16:54:59.131Z,4.10
2023-05-31T16:57:31.246Z,2.70
2023-05-31T17:00:03.376Z,2.90
2023-05-31T17:02:35.854Z,3.50
2023-05-31T17:05:10.661Z,3.60
2023-05-31T17:07:55.951Z,3.80
2023-05-31T17:10:28.722Z,3.00
2023-05-31T17:13:04.642Z,2.80
2023-05-31T17:15:37.091Z,3.40
2023-05-31T17:18:09.592Z,3.30
2023-05-31T17:20:44.549Z,2.80
2023-05-31T17:23:29.868Z,3.30
2023-05-31T17:26:02.521Z,3.00
2023-05-31T17:28:35.004Z,3.20
2023-05-31T17:31:07.882Z,3.40
2023-05-31T17:33:40.140Z,21.00
2023-05-31T17:36:13.253Z,11.90
2023-05-31T17:38:45.450Z,4.10
2023-05-31T17:41:19.807Z,3.40
2023-05-31T17:44:01.407Z,3.10
2023-05-31T17:46:33.697Z,4.60
2023-05-31T17:49:06.028Z,3.40
2023-05-31T17:51:38.735Z,3.80
2023-05-31T17:54:11.711Z,4.70
2023-05-31T17:56:45.580Z,5.20
2023-05-31T17:59:18.328Z,7.00
2023-05-31T18:01:53.110Z,6.50
2023-05-31T18:04:34.728Z,6.90
2023-05-31T18:07:07.505Z,7.00
2023-05-31T18:09:39.721Z,5.00
2023-05-31T18:12:12.733Z,5.30
2023-05-31T18:14:46.018Z,6.00
2023-05-31T18:17:18.622Z,6.40
2023-05-31T18:19:50.855Z,6.80
2023-05-31T18:22:23.859Z,6.50
2023-05-31T18:24:57.153Z,5.30
2023-05-31T18:27:29.322Z,5.90
2023-05-31T18:30:02.018Z,5.50
2023-05-31T18:32:36.698Z,6.00
2023-05-31T18:35:09.903Z,6.00
2023-05-31T18:37:44.524Z,5.10
2023-05-31T18:40:16.790Z,5.40
2023-05-31T18:42:49.112Z,4.40
2023-05-31T18:45:21.295Z,5.00
2023-05-31T18:47:53.916Z,4.50
2023-05-31T18:50:26.615Z,3.90
2023-05-31T18:52:58.896Z,3.90
2023-05-31T18:55:31.978Z,4.50
2023-05-31T18:58:06.367Z,3.80
2023-05-31T19:00:47.428Z,4.30
2023-05-31T19:03:20.006Z,3.80
2023-05-31T19:05:54.298Z,4.70
2023-05-31T19:08:28.452Z,5.00
2023-05-31T19:11:01.274Z,6.60
2023-05-31T19:13:33.992Z,7.70
2023-05-31T19:16:06.848Z,7.30
2023-05-31T19:18:39.365Z,8.00
2023-05-31T19:21:11.663Z,7.30
2023-05-31T19:23:45.941Z,7.30
2023-05-31T19:29:32.553Z,10.70
2023-05-31T19:32:10.840Z,12.10
2023-05-31T19:34:59.823Z,15.00
2023-05-31T19:37:32.538Z,16.10
2023-05-31T19:40:08.962Z,15.80
2023-05-31T19:42:51.439Z,15.40
2023-05-31T19:45:23.922Z,14.20
2023-05-31T19:47:56.233Z,13.00
2023-05-31T19:50:36.338Z,12.70
2023-05-31T19:53:08.563Z,12.70
2023-05-31T19:55:42.535Z,11.70
2023-05-31T19:58:28.931Z,11.30
2023-05-31T20:04:55.451Z,10.70
2023-05-31T20:07:27.739Z,10.70
2023-05-31T20:14:30.917Z,9.60
2023-05-31T20:17:03.153Z,8.80
2023-05-31T20:19:36.711Z,8.70
2023-05-31T20:22:10.086Z,8.00
2023-05-31T20:24:49.059Z,8.20
2023-05-31T20:28:07.949Z,8.00
